Time;durP1;ratioP1;P1;durP2;ratioP2;P2;SDS_P1;SDS_P2;PMS_P1;PMS_P2;Temp;Humidity;BMP_temperature;BMP_pressure;BME280_temperature;BME280_humidity;BME280_pressure;Samples;Min_cycle;Max_cycle;Signal;HPM_P1;HPM_P2
2022/01/16 00:04:05;;;;;;;26.73;8.53;;;4.10;99.90;;;;;;5034845;28;20244;-75
2022/01/16 00:04:53;;;;;;;18.63;8.87;;;4.10;99.90;;;;;;5051822;28;20205;-75
2022/01/16 00:07:18;;;;;;;21.37;9.30;;;4.10;99.90;;;;;;5052842;28;20224;-75
2022/01/16 00:09:44;;;;;;;26.00;9.10;;;4.00;99.90;;;;;;5034162;28;20174;-74
2022/01/16 00:12:11;;;;;;;28.13;9.10;;;4.00;99.90;;;;;;5053111;28;20712;-75
2022/01/16 00:14:36;;;;;;;21.67;8.43;;;3.90;99.90;;;;;;5052161;28;20659;-75
2022/01/16 00:17:04;;;;;;;24.23;9.10;;;3.90;99.90;;;;;;5034327;28;20229;-75
2022/01/16 00:19:29;;;;;;;28.50;8.80;;;3.80;99.90;;;;;;5051677;28;20214;-75
2022/01/16 00:21:55;;;;;;;24.23;8.77;;;3.90;99.90;;;;;;5034697;28;20217;-75
2022/01/16 00:24:21;;;;;;;19.20;8.57;;;3.90;99.90;;;;;;5052972;28;20200;-76
2022/01/16 00:26:46;;;;;;;20.43;9.17;;;3.90;99.90;;;;;;5052236;28;20304;-75
2022/01/16 00:29:12;;;;;;;22.57;8.87;;;3.90;99.90;;;;;;5053254;28;20217;-75
2022/01/16 00:31:39;;;;;;;20.97;8.43;;;3.90;99.90;;;;;;5052148;28;20699;-75
2022/01/16 00:34:06;;;;;;;21.73;7.90;;;3.90;99.90;;;;;;5051900;28;20275;-75
2022/01/16 00:36:32;;;;;;;22.23;8.27;;;4.00;99.90;;;;;;5052105;28;20179;-75
2022/01/16 00:38:58;;;;;;;22.67;7.57;;;4.00;99.90;;;;;;5034396;28;20538;-75
2022/01/16 00:41:24;;;;;;;22.83;7.77;;;3.90;99.90;;;;;;5051911;28;20702;-76
2022/01/16 00:43:51;;;;;;;21.07;7.87;;;3.90;99.90;;;;;;5051761;28;20308;-75
2022/01/16 00:46:18;;;;;;;21.80;7.03;;;4.00;99.90;;;;;;5051972;28;20222;-75
2022/01/16 00:48:44;;;;;;;21.50;7.37;;;3.90;99.90;;;;;;5033787;28;20175;-77
2022/01/16 00:51:11;;;;;;;17.00;7.43;;;3.90;99.90;;;;;;5036294;28;20196;-76
2022/01/16 00:53:38;;;;;;;18.90;7.50;;;3.90;99.90;;;;;;5053273;28;20208;-74
2022/01/16 00:56:04;;;;;;;23.07;8.37;;;3.90;99.90;;;;;;5035457;28;20270;-76
2022/01/16 00:58:30;;;;;;;18.03;7.67;;;3.90;99.90;;;;;;5052826;28;20238;-73
2022/01/16 01:00:56;;;;;;;22.83;7.80;;;3.90;99.90;;;;;;5035671;28;20248;-74
2022/01/16 01:03:21;;;;;;;19.53;7.63;;;3.90;99.90;;;;;;5035723;28;20176;-72
2022/01/16 01:05:47;;;;;;;19.10;8.03;;;3.90;99.90;;;;;;5052538;28;20582;-76
2022/01/16 01:08:12;;;;;;;27.63;8.37;;;3.90;99.90;;;;;;5054804;28;20220;-75
2022/01/16 01:10:40;;;;;;;18.90;7.27;;;3.90;99.90;;;;;;5059701;28;20216;-75
2022/01/16 01:13:10;;;;;;;18.40;7.80;;;3.90;99.90;;;;;;5041908;28;20217;-75
2022/01/16 01:15:49;;;;;;;23.27;8.00;;;3.90;99.90;;;;;;5036339;28;20222;-75
2022/01/16 01:18:17;;;;;;;20.97;8.00;;;3.90;99.90;;;;;;5051356;28;20193;-75
2022/01/16 01:20:44;;;;;;;22.17;8.03;;;3.80;99.90;;;;;;5052924;28;20207;-75
2022/01/16 01:23:10;;;;;;;17.60;7.47;;;3.90;99.90;;;;;;5035509;28;20209;-75
2022/01/16 01:25:37;;;;;;;30.37;10.73;;;3.80;99.90;;;;;;5035119;28;20274;-75
2022/01/16 01:28:07;;;;;;;20.33;8.17;;;3.80;99.90;;;;;;5051752;28;20933;-75
2022/01/16 01:30:32;;;;;;;23.93;8.67;;;3.70;99.90;;;;;;5051537;28;20244;-76
2022/01/16 01:32:59;;;;;;;21.20;7.97;;;3.70;99.90;;;;;;5052094;28;20182;-75
2022/01/16 01:35:25;;;;;;;19.13;8.20;;;3.60;99.90;;;;;;5032988;28;20262;-75
2022/01/16 01:37:51;;;;;;;30.00;9.10;;;3.60;99.90;;;;;;5033102;28;20676;-76
2022/01/16 01:40:21;;;;;;;21.07;7.83;;;3.60;99.90;;;;;;5033019;28;20302;-75
2022/01/16 01:43:03;;;;;;;21.57;8.40;;;3.60;99.90;;;;;;5051057;28;20187;-75
2022/01/16 01:51:07;;;;;;;19.27;7.23;;;3.60;99.90;;;;;;5051135;28;20209;-75
2022/01/16 01:53:34;;;;;;;20.53;6.40;;;3.70;99.90;;;;;;5050764;28;20209;-75
2022/01/16 01:56:00;;;;;;;19.30;7.00;;;3.50;99.90;;;;;;5032355;28;20209;-74
2022/01/16 01:58:26;;;;;;;19.13;6.17;;;3.60;99.90;;;;;;5050520;28;20215;-75
2022/01/16 02:00:51;;;;;;;16.03;6.00;;;3.60;99.90;;;;;;5050501;28;20213;-75
2022/01/16 02:03:31;;;;;;;20.57;6.00;;;3.60;99.90;;;;;;5051390;28;20203;-75
2022/01/16 02:05:57;;;;;;;18.60;6.53;;;3.60;99.90;;;;;;5050283;28;20249;-75
2022/01/16 02:08:23;;;;;;;18.10;6.27;;;3.60;99.90;;;;;;5032283;28;20624;-76
2022/01/16 02:10:49;;;;;;;23.90;6.43;;;3.60;99.90;;;;;;5032410;28;20205;-76
2022/01/16 02:13:23;;;;;;;19.73;6.67;;;3.50;99.90;;;;;;5050629;28;20725;-75
2022/01/16 02:34:42;;;;;;;24.83;6.83;;;3.30;99.90;;;;;;5054135;28;20252;-76
2022/01/16 02:37:11;;;;;;;25.37;6.33;;;3.30;99.90;;;;;;5054371;28;20265;-75
2022/01/16 02:39:41;;;;;;;18.53;6.80;;;3.30;99.90;;;;;;5053926;28;20655;-75
2022/01/16 02:42:09;;;;;;;17.57;6.13;;;3.30;99.90;;;;;;5054792;28;20321;-75
2022/01/16 02:44:44;;;;;;;17.97;7.33;;;3.30;99.90;;;;;;5053912;28;20236;-75
2022/01/16 02:47:13;;;;;;;21.43;6.00;;;3.20;99.90;;;;;;5053822;28;20208;-75
2022/01/16 02:49:40;;;;;;;23.43;6.37;;;3.20;99.90;;;;;;5053741;28;20647;-75
2022/01/16 02:52:09;;;;;;;14.43;5.87;;;3.10;99.90;;;;;;5054129;28;20677;-76
2022/01/16 02:54:37;;;;;;;21.07;6.03;;;3.10;99.90;;;;;;5035842;28;20207;-75
2022/01/16 02:57:05;;;;;;;24.70;6.37;;;3.10;99.90;;;;;;5054404;28;20171;-75
2022/01/16 02:59:31;;;;;;;19.47;5.80;;;3.10;99.90;;;;;;5035629;28;20292;-75
2022/01/16 03:01:57;;;;;;;15.67;6.83;;;3.00;99.90;;;;;;5036063;28;20641;-75
2022/01/16 03:04:22;;;;;;;26.33;7.17;;;3.00;99.90;;;;;;5035823;28;20207;-74
2022/01/16 03:06:48;;;;;;;26.07;6.70;;;2.90;99.90;;;;;;5035857;28;20191;-75
2022/01/16 03:09:14;;;;;;;15.07;6.73;;;2.90;99.90;;;;;;5053969;28;20554;-75
2022/01/16 03:11:47;;;;;;;17.57;6.30;;;2.80;99.90;;;;;;5053658;28;20204;-75
2022/01/16 03:14:16;;;;;;;16.50;6.97;;;2.80;99.90;;;;;;5053465;28;20593;-75
2022/01/16 03:16:46;;;;;;;15.60;5.77;;;2.80;99.90;;;;;;5035711;28;20560;-75
2022/01/16 03:22:02;;;;;;;23.90;6.40;;;2.70;99.90;;;;;;5053764;28;20727;-75
2022/01/16 03:24:47;;;;;;;22.07;6.07;;;2.60;99.90;;;;;;5053915;28;20219;-76
2022/01/16 03:27:16;;;;;;;21.63;6.70;;;2.60;99.90;;;;;;5035886;28;20290;-75
2022/01/16 03:29:44;;;;;;;18.33;6.90;;;2.50;99.90;;;;;;5030865;28;20294;-74
2022/01/16 03:32:13;;;;;;;20.63;6.20;;;2.50;99.90;;;;;;5049859;28;20337;-75
2022/01/16 03:34:38;;;;;;;22.10;5.90;;;2.50;99.90;;;;;;5034915;28;20292;-76
2022/01/16 03:37:05;;;;;;;23.40;6.10;;;2.50;99.90;;;;;;5035295;28;20688;-75
2022/01/16 03:39:31;;;;;;;19.90;5.93;;;2.50;99.90;;;;;;5051636;28;20664;-75
2022/01/16 03:41:58;;;;;;;13.83;5.70;;;2.50;99.90;;;;;;5053554;28;20182;-75
2022/01/16 03:44:24;;;;;;;27.97;6.17;;;2.50;99.90;;;;;;5052772;28;20251;-75
2022/01/16 03:46:50;;;;;;;23.70;6.83;;;2.40;99.90;;;;;;5035205;28;20216;-75
2022/01/16 03:49:21;;;;;;;18.83;5.53;;;2.40;99.90;;;;;;5052847;28;20203;-75
2022/01/16 03:51:50;;;;;;;15.63;5.53;;;2.30;99.90;;;;;;5027148;28;20168;-75
2022/01/16 03:54:18;;;;;;;13.73;4.90;;;2.30;99.90;;;;;;5053172;28;20204;-75
2022/01/16 03:56:44;;;;;;;18.17;5.47;;;2.30;99.90;;;;;;5034605;28;20199;-75
2022/01/16 03:59:09;;;;;;;23.77;7.07;;;2.30;99.90;;;;;;5052565;28;20637;-75
2022/01/16 04:01:35;;;;;;;19.43;5.07;;;2.20;99.90;;;;;;5034361;28;20207;-75
2022/01/16 04:04:02;;;;;;;22.63;6.30;;;2.30;99.90;;;;;;5052601;28;20650;-76
2022/01/16 04:06:28;;;;;;;23.80;6.77;;;2.20;99.90;;;;;;5034780;28;20267;-75
2022/01/16 04:08:55;;;;;;;17.67;5.50;;;2.20;99.90;;;;;;5052269;28;20284;-75
2022/01/16 04:11:24;;;;;;;15.40;5.07;;;2.20;99.90;;;;;;5034315;28;20226;-75
2022/01/16 04:13:53;;;;;;;23.20;5.73;;;2.10;99.90;;;;;;5044770;28;20249;-75
2022/01/16 04:16:20;;;;;;;17.43;5.90;;;2.10;99.90;;;;;;5052342;28;20617;-75
2022/01/16 04:18:50;;;;;;;19.43;6.30;;;2.10;99.90;;;;;;5044204;28;20258;-75
2022/01/16 04:21:18;;;;;;;21.07;5.80;;;2.10;99.90;;;;;;5034541;28;20186;-75
2022/01/16 04:23:43;;;;;;;24.20;5.73;;;2.10;99.90;;;;;;5052273;28;20679;-75
2022/01/16 04:26:09;;;;;;;13.03;5.13;;;2.10;99.90;;;;;;5034125;28;20207;-74
2022/01/16 04:28:34;;;;;;;20.53;4.97;;;2.10;99.90;;;;;;5034005;28;20214;-75
2022/01/16 04:31:00;;;;;;;22.47;5.70;;;2.00;99.90;;;;;;5051832;28;20210;-75
2022/01/16 04:33:26;;;;;;;17.83;5.37;;;2.10;99.90;;;;;;5052468;28;20255;-75
2022/01/16 04:35:51;;;;;;;19.73;5.10;;;2.10;99.90;;;;;;5051621;28;20294;-75
2022/01/16 04:38:17;;;;;;;21.70;6.30;;;2.00;99.90;;;;;;5051785;28;20676;-75
2022/01/16 04:43:47;;;;;;;17.70;6.17;;;2.00;99.90;;;;;;5051596;28;20664;-75
2022/01/16 04:46:12;;;;;;;17.73;5.43;;;2.00;99.90;;;;;;5056423;28;20207;-75
2022/01/16 04:48:38;;;;;;;23.23;5.83;;;2.00;99.90;;;;;;5056986;28;20183;-75
2022/01/16 04:51:03;;;;;;;17.90;5.07;;;2.00;99.90;;;;;;5052835;28;20180;-75
2022/01/16 04:53:29;;;;;;;17.67;5.33;;;1.90;99.90;;;;;;5051668;28;20219;-75
2022/01/16 04:55:55;;;;;;;20.13;6.30;;;1.90;99.90;;;;;;5033237;28;20224;-75
2022/01/16 04:58:21;;;;;;;22.10;6.40;;;1.90;99.90;;;;;;5033529;28;20602;-75
2022/01/16 05:00:47;;;;;;;21.23;5.80;;;1.90;99.90;;;;;;5033248;28;20609;-75
2022/01/16 05:03:12;;;;;;;27.50;6.83;;;1.90;99.90;;;;;;5051942;28;20186;-75
2022/01/16 05:05:38;;;;;;;19.97;5.60;;;1.90;99.90;;;;;;5051239;28;20211;-75
2022/01/16 05:08:03;;;;;;;22.67;5.33;;;1.90;99.90;;;;;;5051285;28;20223;-75
2022/01/16 05:10:29;;;;;;;17.90;5.43;;;1.80;99.90;;;;;;5051151;28;20242;-75
2022/01/16 05:13:04;;;;;;;19.43;6.03;;;1.80;99.90;;;;;;5051439;28;20210;-75
2022/01/16 05:18:14;;;;;;;18.73;5.03;;;1.90;99.90;;;;;;5052114;28;20755;-75
2022/01/16 05:20:40;;;;;;;23.23;6.07;;;1.90;99.90;;;;;;5050770;28;20339;-75
2022/01/16 05:23:05;;;;;;;21.83;5.87;;;1.80;99.90;;;;;;5033391;28;20200;-75
2022/01/16 05:25:31;;;;;;;17.10;5.50;;;1.90;99.90;;;;;;5050685;28;20243;-75
2022/01/16 05:27:56;;;;;;;25.20;5.70;;;1.80;99.90;;;;;;5032819;28;20214;-76
2022/01/16 05:30:22;;;;;;;17.93;6.00;;;1.80;99.90;;;;;;5031419;28;20171;-75
2022/01/16 05:32:47;;;;;;;23.03;6.47;;;1.80;99.90;;;;;;5050818;28;20204;-75
2022/01/16 05:35:14;;;;;;;20.43;5.13;;;1.80;99.90;;;;;;5062148;22;20709;-76
2022/01/16 05:37:39;;;;;;;16.87;5.73;;;1.80;99.90;;;;;;5008607;28;20216;-75
2022/01/16 05:40:06;;;;;;;18.83;6.80;;;1.80;99.90;;;;;;4998066;28;20204;-76
2022/01/16 05:42:32;;;;;;;24.87;6.70;;;1.80;99.90;;;;;;5015581;28;20200;-76
2022/01/16 05:44:58;;;;;;;22.03;7.07;;;1.80;99.90;;;;;;5016513;28;20243;-76
2022/01/16 05:47:24;;;;;;;26.37;7.00;;;1.80;99.90;;;;;;4998209;28;20224;-76
2022/01/16 05:49:49;;;;;;;25.67;6.47;;;1.70;99.90;;;;;;5014262;28;20263;-75
2022/01/16 05:52:15;;;;;;;25.60;6.87;;;1.70;99.90;;;;;;5015648;28;20228;-75
2022/01/16 05:54:40;;;;;;;24.23;6.97;;;1.70;99.90;;;;;;5015544;28;20677;-74
2022/01/16 05:57:06;;;;;;;20.97;7.10;;;1.70;99.90;;;;;;5007215;28;20234;-76
2022/01/16 05:59:32;;;;;;;25.90;7.70;;;1.70;99.90;;;;;;5015300;28;20236;-76
2022/01/16 06:01:57;;;;;;;20.33;8.23;;;1.70;99.90;;;;;;5015300;28;20204;-76
2022/01/16 06:04:23;;;;;;;22.53;7.80;;;1.70;99.90;;;;;;5015492;28;20220;-76
2022/01/16 06:06:48;;;;;;;22.13;8.40;;;1.60;99.90;;;;;;5015636;28;20209;-76
2022/01/16 06:09:14;;;;;;;19.90;8.13;;;1.60;99.90;;;;;;5016961;28;20279;-76
2022/01/16 06:11:39;;;;;;;23.20;7.50;;;1.60;99.90;;;;;;5015813;28;20219;-75
2022/01/16 06:14:05;;;;;;;26.07;9.63;;;1.60;99.90;;;;;;5016338;28;20219;-76
2022/01/16 06:16:30;;;;;;;22.77;9.00;;;1.60;99.90;;;;;;4998537;28;20240;-76
2022/01/16 06:18:56;;;;;;;20.90;9.40;;;1.60;99.90;;;;;;5016952;28;20299;-76
2022/01/16 06:21:21;;;;;;;21.70;8.87;;;1.60;99.90;;;;;;5016942;28;20181;-76
2022/01/16 06:23:47;;;;;;;23.70;9.20;;;1.60;99.90;;;;;;5016488;28;20204;-75
2022/01/16 06:26:12;;;;;;;24.60;8.87;;;1.60;99.90;;;;;;5016461;28;20217;-75
2022/01/16 06:28:38;;;;;;;26.50;9.63;;;1.50;99.90;;;;;;5016360;28;20669;-76
2022/01/16 06:31:04;;;;;;;25.67;10.17;;;1.50;99.90;;;;;;5016180;28;20220;-76
2022/01/16 06:33:29;;;;;;;21.70;9.80;;;1.50;99.90;;;;;;4999196;28;20675;-76
2022/01/16 06:35:55;;;;;;;22.47;9.63;;;1.40;99.90;;;;;;5016217;28;20228;-76
2022/01/16 06:38:20;;;;;;;25.97;10.03;;;1.50;99.90;;;;;;5016227;28;20223;-76
2022/01/16 06:40:46;;;;;;;22.87;10.27;;;1.50;99.90;;;;;;4998642;28;20208;-74
2022/01/16 06:43:11;;;;;;;22.37;9.70;;;1.40;99.90;;;;;;5016144;28;20239;-76
2022/01/16 06:45:37;;;;;;;22.50;9.37;;;1.50;99.90;;;;;;5014954;28;20212;-76
2022/01/16 06:48:02;;;;;;;24.70;9.60;;;1.40;99.90;;;;;;5016716;28;20181;-75
2022/01/16 06:50:28;;;;;;;22.63;9.70;;;1.30;99.90;;;;;;4998688;28;20216;-76
2022/01/16 06:52:54;;;;;;;22.23;11.33;;;1.40;99.90;;;;;;4998965;28;20204;-76
2022/01/16 06:55:19;;;;;;;20.93;9.83;;;1.40;99.90;;;;;;5016326;28;20232;-76
2022/01/16 06:57:45;;;;;;;24.67;10.47;;;1.40;99.90;;;;;;5015994;28;20259;-76
2022/01/16 07:00:10;;;;;;;24.80;9.77;;;1.40;99.90;;;;;;5016916;28;20188;-76
2022/01/16 07:02:36;;;;;;;18.37;10.00;;;1.40;99.90;;;;;;5016748;28;20643;-76
2022/01/16 07:05:02;;;;;;;28.47;9.90;;;1.40;99.90;;;;;;5017321;28;20213;-76
2022/01/16 07:07:28;;;;;;;26.57;9.93;;;1.30;99.90;;;;;;5016829;28;20240;-75
2022/01/16 07:09:54;;;;;;;25.03;10.83;;;1.30;99.90;;;;;;5016364;28;20224;-76
2022/01/16 07:12:19;;;;;;;25.53;10.43;;;1.40;99.90;;;;;;5017033;28;20599;-76
2022/01/16 07:14:45;;;;;;;27.67;10.27;;;1.40;99.90;;;;;;5002507;28;20224;-76
2022/01/16 07:17:10;;;;;;;23.90;10.77;;;1.50;99.90;;;;;;5003464;28;20272;-76
2022/01/16 07:19:36;;;;;;;26.47;10.67;;;1.50;99.90;;;;;;5004511;28;20227;-76
2022/01/16 07:22:02;;;;;;;24.47;10.93;;;1.50;99.90;;;;;;5007899;28;20564;-75
2022/01/16 07:24:27;;;;;;;23.33;10.90;;;1.50;99.90;;;;;;5027808;28;20756;-77
2022/01/16 07:26:54;;;;;;;31.93;11.73;;;1.50;99.90;;;;;;5029444;28;20636;-76
2022/01/16 07:29:20;;;;;;;25.43;10.50;;;1.50;99.90;;;;;;5001930;28;20295;-76
2022/01/16 07:31:45;;;;;;;21.90;9.57;;;1.40;99.90;;;;;;5020741;28;20235;-72
2022/01/16 07:34:11;;;;;;;21.03;10.57;;;1.30;99.90;;;;;;5025650;28;20232;-76
2022/01/16 07:36:38;;;;;;;26.00;10.93;;;1.40;99.90;;;;;;5008696;28;20247;-74
2022/01/16 07:39:05;;;;;;;33.10;11.23;;;1.40;99.90;;;;;;5033044;28;20178;-74
2022/01/16 07:41:30;;;;;;;25.77;10.57;;;1.50;99.90;;;;;;5031350;28;20287;-74
2022/01/16 07:43:56;;;;;;;23.93;10.77;;;1.50;99.90;;;;;;5011553;28;20205;-76
2022/01/16 07:46:21;;;;;;;19.87;11.63;;;1.60;99.90;;;;;;5008613;28;20627;-75
2022/01/16 07:48:47;;;;;;;21.63;11.33;;;1.70;99.90;;;;;;5024517;28;20177;-74
2022/01/16 07:51:12;;;;;;;24.73;11.97;;;1.70;99.90;;;;;;5024626;28;20742;-75
2022/01/16 07:53:38;;;;;;;29.03;11.17;;;1.70;99.90;;;;;;5003420;28;20593;-74
2022/01/16 07:56:04;;;;;;;24.80;10.90;;;1.80;99.90;;;;;;5003324;28;20213;-73
2022/01/16 07:58:30;;;;;;;27.87;11.30;;;1.70;99.90;;;;;;5003635;28;20239;-74
2022/01/16 08:00:56;;;;;;;24.70;11.77;;;1.70;99.90;;;;;;5021264;28;20756;-75
2022/01/16 08:03:22;;;;;;;24.13;10.73;;;1.80;99.90;;;;;;5004437;28;20184;-74
2022/01/16 08:05:48;;;;;;;22.83;11.47;;;1.90;99.90;;;;;;5003100;28;20232;-75
2022/01/16 08:08:14;;;;;;;23.73;11.73;;;1.90;99.90;;;;;;5020660;28;20216;-74
2022/01/16 08:10:40;;;;;;;21.10;11.83;;;1.80;99.90;;;;;;5020285;28;20240;-74
2022/01/16 08:13:05;;;;;;;31.60;11.50;;;1.80;99.90;;;;;;5017658;28;20216;-74
2022/01/16 08:15:31;;;;;;;29.30;11.20;;;1.90;99.90;;;;;;5015893;28;20271;-74
2022/01/16 08:17:56;;;;;;;29.40;11.47;;;2.00;99.90;;;;;;4999318;28;20184;-74
2022/01/16 08:20:22;;;;;;;22.13;11.40;;;2.00;99.90;;;;;;4999329;28;20580;-74
2022/01/16 08:22:48;;;;;;;28.43;12.97;;;2.00;99.90;;;;;;4998602;28;20209;-74
2022/01/16 08:25:14;;;;;;;27.03;12.10;;;2.10;99.90;;;;;;4998637;28;20217;-75
2022/01/16 08:27:40;;;;;;;25.97;12.20;;;2.10;99.90;;;;;;4998858;28;20191;-73
2022/01/16 08:30:07;;;;;;;19.07;11.00;;;2.20;99.90;;;;;;5016651;28;20173;-75
2022/01/16 08:32:32;;;;;;;25.03;12.43;;;2.30;99.90;;;;;;5016243;28;20235;-75
2022/01/16 08:34:58;;;;;;;21.03;11.13;;;2.40;99.90;;;;;;5016319;28;20225;-73
2022/01/16 08:37:23;;;;;;;24.80;11.73;;;2.60;99.90;;;;;;5017009;28;20235;-75
2022/01/16 08:39:49;;;;;;;23.87;11.73;;;2.60;99.90;;;;;;4998453;28;20169;-75
2022/01/16 08:42:16;;;;;;;23.90;11.57;;;2.70;99.90;;;;;;5017154;28;20227;-75
2022/01/16 08:44:42;;;;;;;21.17;11.50;;;2.70;99.90;;;;;;5016098;28;20284;-76
2022/01/16 08:47:09;;;;;;;23.03;12.33;;;2.90;99.90;;;;;;5016777;28;20743;-75
2022/01/16 08:49:35;;;;;;;23.37;12.53;;;2.90;99.90;;;;;;4998525;28;20224;-76
2022/01/16 08:52:01;;;;;;;22.47;12.07;;;3.00;99.90;;;;;;5016984;28;20216;-75
2022/01/16 08:54:26;;;;;;;26.53;12.47;;;3.00;99.90;;;;;;5016874;28;20212;-75
2022/01/16 08:56:52;;;;;;;22.70;12.37;;;3.00;99.90;;;;;;5016474;28;20209;-75
2022/01/16 08:59:17;;;;;;;26.60;12.20;;;3.20;99.90;;;;;;5000714;28;20213;-75
2022/01/16 09:01:43;;;;;;;21.93;11.97;;;3.10;99.90;;;;;;5019457;28;20215;-75
2022/01/16 09:04:08;;;;;;;23.07;12.10;;;3.20;99.90;;;;;;5017039;28;20218;-75
2022/01/16 09:06:34;;;;;;;25.97;13.47;;;3.30;99.90;;;;;;4997947;28;20308;-75
2022/01/16 09:08:59;;;;;;;25.60;12.80;;;3.30;99.90;;;;;;5016317;28;20185;-74
2022/01/16 09:11:25;;;;;;;26.17;13.67;;;3.30;99.90;;;;;;5015980;28;20217;-74
2022/01/16 09:13:52;;;;;;;26.87;12.87;;;3.20;99.90;;;;;;5016103;28;20213;-75
2022/01/16 09:16:18;;;;;;;25.37;13.73;;;3.40;99.90;;;;;;4998388;28;20312;-75
2022/01/16 09:18:44;;;;;;;24.40;13.47;;;3.40;99.90;;;;;;5016106;28;20168;-75
2022/01/16 09:21:10;;;;;;;25.00;12.60;;;3.50;99.90;;;;;;5017019;28;20184;-75
2022/01/16 09:23:37;;;;;;;24.47;13.07;;;3.60;99.90;;;;;;5016719;28;20206;-75
2022/01/16 09:26:02;;;;;;;24.33;13.53;;;3.60;99.90;;;;;;5016458;28;20215;-75
2022/01/16 09:28:28;;;;;;;25.53;13.90;;;3.60;99.90;;;;;;4998993;28;20343;-77
2022/01/16 09:30:53;;;;;;;27.60;14.37;;;3.60;99.90;;;;;;5016112;28;20238;-74
2022/01/16 09:33:19;;;;;;;25.87;14.60;;;3.70;99.90;;;;;;4999789;28;20226;-75
2022/01/16 09:35:44;;;;;;;29.77;13.83;;;3.70;99.90;;;;;;5014896;28;20217;-76
2022/01/16 09:38:10;;;;;;;26.73;13.43;;;3.70;99.90;;;;;;5016149;28;20269;-75
2022/01/16 09:40:36;;;;;;;27.23;13.97;;;3.70;99.90;;;;;;5016461;28;20221;-75
2022/01/16 09:43:03;;;;;;;26.50;13.00;;;3.80;99.90;;;;;;5016516;28;20225;-75
2022/01/16 09:45:30;;;;;;;26.33;13.83;;;3.80;99.90;;;;;;5017632;28;20294;-75
2022/01/16 09:47:55;;;;;;;26.47;14.23;;;3.80;99.90;;;;;;4999848;28;20220;-78
2022/01/16 09:50:25;;;;;;;26.93;13.77;;;3.90;99.90;;;;;;5000009;28;20211;-74
2022/01/16 09:52:52;;;;;;;22.87;14.13;;;4.00;99.90;;;;;;5018255;28;20215;-75
2022/01/16 09:55:22;;;;;;;29.90;15.17;;;4.00;99.90;;;;;;4984411;28;20235;-75
2022/01/16 09:57:50;;;;;;;25.10;14.20;;;4.10;99.90;;;;;;5018232;28;20215;-76
2022/01/16 10:00:20;;;;;;;23.83;13.17;;;3.90;99.90;;;;;;5018801;28;20186;-74
2022/01/16 10:02:46;;;;;;;23.97;13.80;;;3.80;99.90;;;;;;4999764;28;20215;-76
2022/01/16 10:05:34;;;;;;;26.17;14.90;;;3.80;99.90;;;;;;5015741;28;20273;-76
2022/01/16 10:08:02;;;;;;;23.13;13.23;;;3.70;99.90;;;;;;4998789;28;20225;-75
2022/01/16 10:10:33;;;;;;;24.13;13.47;;;3.70;99.90;;;;;;4998457;28;20218;-76
2022/01/16 10:13:06;;;;;;;23.73;13.90;;;3.50;99.90;;;;;;5015737;28;20214;-76
2022/01/16 10:15:33;;;;;;;27.27;14.33;;;3.40;99.90;;;;;;4998632;28;20221;-76
2022/01/16 10:18:00;;;;;;;24.33;14.00;;;3.30;99.90;;;;;;5000559;28;20176;-76
2022/01/16 10:20:27;;;;;;;26.20;14.93;;;3.20;99.90;;;;;;5018899;28;20211;-76
2022/01/16 10:22:59;;;;;;;30.20;15.17;;;3.10;99.90;;;;;;5000778;28;20588;-76
2022/01/16 10:25:41;;;;;;;25.00;14.90;;;2.80;99.90;;;;;;5018684;28;20213;-76
2022/01/16 10:28:13;;;;;;;29.43;15.80;;;2.60;99.90;;;;;;4999853;28;20223;-76
2022/01/16 10:30:45;;;;;;;26.07;14.90;;;2.50;99.90;;;;;;5000033;28;20181;-73
2022/01/16 10:33:13;;;;;;;27.07;16.23;;;2.40;99.90;;;;;;5001018;28;20182;-74
2022/01/16 10:35:40;;;;;;;27.77;16.13;;;2.50;99.90;;;;;;4999471;28;20232;-75
2022/01/16 10:38:15;;;;;;;26.83;15.40;;;2.60;99.90;;;;;;5019388;28;20678;-75
2022/01/16 10:40:41;;;;;;;31.00;16.90;;;2.60;99.90;;;;;;5017545;28;20223;-75
2022/01/16 10:43:13;;;;;;;24.77;14.50;;;2.60;99.90;;;;;;4998457;28;20213;-75
2022/01/16 10:45:39;;;;;;;28.70;16.43;;;2.50;99.90;;;;;;5017391;28;20264;-76
2022/01/16 10:48:06;;;;;;;27.27;15.63;;;2.50;99.90;;;;;;5002920;28;20261;-76
2022/01/16 10:50:33;;;;;;;26.90;15.53;;;2.60;99.90;;;;;;5022342;28;20220;-75
2022/01/16 10:52:59;;;;;;;28.20;16.37;;;2.50;99.90;;;;;;5021624;28;20209;-76
2022/01/16 10:55:51;;;;;;;31.27;17.03;;;2.50;99.90;;;;;;5022671;28;20233;-75
2022/01/16 10:58:19;;;;;;;26.30;14.73;;;2.50;99.90;;;;;;5022469;28;20224;-75
2022/01/16 11:01:00;;;;;;;27.57;16.40;;;2.50;99.90;;;;;;5005440;28;20178;-76
2022/01/16 11:03:28;;;;;;;28.97;16.93;;;2.50;99.90;;;;;;5004611;28;20227;-76
2022/01/16 11:05:55;;;;;;;32.93;18.63;;;2.50;99.90;;;;;;5022637;28;20242;-76
2022/01/16 11:08:23;;;;;;;32.10;18.37;;;2.60;99.90;;;;;;5021989;28;20213;-76
2022/01/16 11:10:52;;;;;;;30.57;15.73;;;2.60;99.90;;;;;;5005602;28;20264;-76
2022/01/16 11:13:23;;;;;;;30.43;16.83;;;2.60;99.90;;;;;;5005080;28;20604;-77
2022/01/16 11:15:52;;;;;;;29.83;15.80;;;2.70;99.90;;;;;;5003898;28;20220;-76
2022/01/16 11:18:19;;;;;;;31.70;16.70;;;2.80;99.90;;;;;;5005520;28;20650;-75
2022/01/16 11:24:23;;;;;;;30.17;17.20;;;2.70;99.90;;;;;;5023077;28;20206;-76
2022/01/16 11:26:15;;;;;;;36.23;18.17;;;2.70;99.90;;;;;;5021982;28;20217;-76
2022/01/16 11:28:42;;;;;;;27.57;16.27;;;2.70;99.90;;;;;;5007288;28;20243;-75
2022/01/16 11:31:10;;;;;;;27.43;15.67;;;2.80;99.90;;;;;;5008540;28;20404;-76
2022/01/16 11:33:37;;;;;;;30.57;16.83;;;2.80;99.90;;;;;;5026479;28;20181;-76
2022/01/16 11:36:12;;;;;;;32.53;16.27;;;2.80;99.90;;;;;;5031887;23;20357;-74
2022/01/16 11:38:41;;;;;;;34.23;18.70;;;2.80;99.90;;;;;;5009451;28;20208;-75
2022/01/16 11:41:19;;;;;;;30.50;16.67;;;2.90;99.90;;;;;;5011955;28;20228;-76
2022/01/16 11:43:50;;;;;;;26.30;15.63;;;2.90;99.90;;;;;;5013330;28;20210;-77
2022/01/16 11:46:23;;;;;;;27.60;15.87;;;2.90;99.90;;;;;;5019617;28;20311;-76
2022/01/16 11:48:59;;;;;;;32.10;17.50;;;2.90;99.90;;;;;;5023996;28;20271;-75
2022/01/16 11:51:37;;;;;;;26.37;15.77;;;2.80;99.90;;;;;;5033324;28;20176;-75
2022/01/16 11:54:15;;;;;;;27.40;15.37;;;2.90;99.90;;;;;;5032219;28;20211;-75
2022/01/16 11:56:40;;;;;;;30.27;16.97;;;2.90;99.90;;;;;;5031116;28;20236;-75
2022/01/16 11:59:15;;;;;;;27.47;16.70;;;3.00;99.90;;;;;;5030636;28;20619;-76
2022/01/16 12:02:00;;;;;;;29.30;16.40;;;3.00;99.90;;;;;;5031100;28;20349;-74
2022/01/16 12:04:29;;;;;;;26.37;15.73;;;3.10;99.90;;;;;;5033715;28;20211;-75
2022/01/16 12:07:12;;;;;;;24.07;14.47;;;3.10;99.90;;;;;;5045919;28;20228;-75
2022/01/16 12:09:41;;;;;;;29.60;15.37;;;3.20;99.90;;;;;;5041307;28;20272;-75
2022/01/16 12:12:12;;;;;;;29.77;16.50;;;3.20;99.90;;;;;;5032514;28;20203;-76
2022/01/16 12:15:01;;;;;;;23.60;15.23;;;3.30;99.90;;;;;;5032396;28;20216;-74
2022/01/16 12:17:42;;;;;;;31.90;15.13;;;3.10;99.90;;;;;;5031102;28;20212;-75
2022/01/16 12:20:14;;;;;;;25.23;14.73;;;3.10;99.90;;;;;;5027926;28;20204;-76
2022/01/16 12:22:52;;;;;;;32.80;16.50;;;3.10;99.90;;;;;;5031606;28;20213;-75
2022/01/16 12:25:37;;;;;;;26.17;15.33;;;3.10;99.90;;;;;;5032412;28;20216;-75
2022/01/16 12:28:08;;;;;;;25.70;14.43;;;3.10;99.90;;;;;;5024889;28;20684;-75
2022/01/16 12:30:56;;;;;;;31.20;16.87;;;3.20;99.90;;;;;;5031985;28;20177;-73
2022/01/16 12:33:38;;;;;;;25.40;15.33;;;3.20;99.90;;;;;;5031271;28;20187;-75
2022/01/16 12:36:32;;;;;;;26.80;14.53;;;3.30;99.90;;;;;;5030829;28;20311;-74
2022/01/16 12:39:07;;;;;;;31.47;15.07;;;3.30;99.90;;;;;;5032404;28;20209;-76
2022/01/16 12:41:38;;;;;;;27.90;16.23;;;3.30;99.90;;;;;;5030357;28;20262;-75
2022/01/16 12:44:11;;;;;;;27.33;16.47;;;3.40;99.90;;;;;;5032232;28;20754;-75
2022/01/16 12:46:38;;;;;;;27.20;15.63;;;3.30;99.90;;;;;;5031565;28;20214;-75
2022/01/16 12:49:12;;;;;;;28.47;16.83;;;3.30;99.90;;;;;;5031787;28;20208;-76
2022/01/16 12:51:41;;;;;;;28.90;16.53;;;3.30;99.90;;;;;;5031561;28;20176;-75
2022/01/16 12:54:16;;;;;;;29.37;17.13;;;3.30;99.90;;;;;;5033442;28;20279;-75
2022/01/16 12:56:45;;;;;;;33.00;16.33;;;3.40;99.90;;;;;;5029957;28;20241;-75
2022/01/16 12:59:16;;;;;;;28.53;15.77;;;3.40;99.90;;;;;;5031558;28;20219;-76
2022/01/16 13:01:50;;;;;;;29.50;16.93;;;3.40;99.90;;;;;;5031518;28;20211;-75
2022/01/16 13:04:23;;;;;;;30.13;16.10;;;3.40;99.90;;;;;;5031944;28;20215;-76
2022/01/16 13:06:49;;;;;;;29.07;17.30;;;3.40;99.90;;;;;;5023611;28;20194;-75
2022/01/16 13:09:15;;;;;;;34.07;18.20;;;3.40;99.90;;;;;;5031949;28;20195;-76
2022/01/16 13:11:47;;;;;;;31.80;17.60;;;3.40;99.90;;;;;;5030197;28;20718;-76
2022/01/16 13:14:15;;;;;;;35.00;18.33;;;3.40;99.90;;;;;;5031519;28;20309;-75
2022/01/16 13:16:44;;;;;;;31.67;17.53;;;3.40;99.90;;;;;;5029825;28;20811;-75
2022/01/16 13:19:16;;;;;;;33.30;17.73;;;3.40;99.90;;;;;;5031379;28;20274;-74
2022/01/16 13:21:43;;;;;;;33.27;17.97;;;3.50;99.90;;;;;;5031144;28;20304;-76